Time;durP1;ratioP1;P1;durP2;ratioP2;P2;SDS_P1;SDS_P2;PMS_P1;PMS_P2;Temp;Humidity;BMP_temperature;BMP_pressure;BME280_temperature;BME280_humidity;BME280_pressure;Samples;Min_cycle;Max_cycle;Signal;HPM_P1;HPM_P2
2022/03/07 00:00:34;;;;;;;3.60;2.60;;;;;;;;;;5027315;28;20033;-52
2022/03/07 00:02:59;;;;;;;5.00;3.05;;;;;;;;;;5027521;28;20036;-58
2022/03/07 00:05:24;;;;;;;5.80;2.80;;;;;;;;;;5028693;28;20029;-55
2022/03/07 00:07:50;;;;;;;3.35;2.85;;;;;;;;;;5027599;28;20043;-56
2022/03/07 00:10:16;;;;;;;4.07;2.70;;;;;;;;;;5027947;28;20033;-57
2022/03/07 00:12:41;;;;;;;3.20;2.67;;;;;;;;;;5026936;28;20109;-58
2022/03/07 00:15:07;;;;;;;4.70;2.90;;;;;;;;;;5027561;28;20506;-58
2022/03/07 00:17:32;;;;;;;3.17;2.70;;;;;;;;;;5027341;28;20030;-55
2022/03/07 00:19:58;;;;;;;4.65;2.80;;;;;;;;;;5024613;28;20147;-57
2022/03/07 00:22:23;;;;;;;3.15;2.83;;;;;;;;;;5027815;28;20124;-55
2022/03/07 00:24:48;;;;;;;4.20;2.88;;;;;;;;;;5026724;28;20033;-57
2022/03/07 00:27:14;;;;;;;4.40;2.63;;;;;;;;;;5026849;28;20391;-56
2022/03/07 00:29:39;;;;;;;4.28;2.70;;;;;;;;;;5026199;28;20033;-57
2022/03/07 00:32:05;;;;;;;3.03;2.72;;;;;;;;;;5027712;28;20029;-58
2022/03/07 00:34:30;;;;;;;5.72;2.83;;;;;;;;;;5028015;28;20728;-57
2022/03/07 00:36:56;;;;;;;3.03;2.30;;;;;;;;;;5027377;28;20086;-58
2022/03/07 00:39:24;;;;;;;4.93;2.70;;;;;;;;;;5028171;28;20033;-54
2022/03/07 00:41:57;;;;;;;3.83;2.50;;;;;;;;;;5028132;28;20424;-58
2022/03/07 00:44:22;;;;;;;3.17;2.30;;;;;;;;;;5025379;28;20056;-56
2022/03/07 00:46:48;;;;;;;2.97;2.30;;;;;;;;;;5026455;28;20385;-55
2022/03/07 00:49:14;;;;;;;2.75;2.28;;;;;;;;;;5025069;28;20037;-58
2022/03/07 00:51:39;;;;;;;3.70;2.17;;;;;;;;;;5024376;28;20037;-55
2022/03/07 00:54:05;;;;;;;3.97;2.22;;;;;;;;;;5025607;28;20064;-59
2022/03/07 00:56:30;;;;;;;2.88;2.00;;;;;;;;;;5026969;28;20025;-59
2022/03/07 00:58:56;;;;;;;2.08;1.88;;;;;;;;;;5026798;28;20034;-58
2022/03/07 01:01:22;;;;;;;2.30;1.95;;;;;;;;;;5026530;28;20030;-58
2022/03/07 01:03:47;;;;;;;3.83;2.10;;;;;;;;;;5028141;28;20026;-56
2022/03/07 01:06:13;;;;;;;3.40;1.85;;;;;;;;;;5029362;28;20025;-56
2022/03/07 01:08:39;;;;;;;3.17;2.10;;;;;;;;;;5027884;28;20119;-58
2022/03/07 01:11:05;;;;;;;5.90;2.33;;;;;;;;;;5026281;28;20025;-59
2022/03/07 01:13:30;;;;;;;2.63;1.75;;;;;;;;;;5021394;28;20061;-58
2022/03/07 01:15:55;;;;;;;2.22;1.83;;;;;;;;;;5025689;28;20059;-56
2022/03/07 01:18:21;;;;;;;3.40;2.08;;;;;;;;;;5023819;28;20156;-57
2022/03/07 01:20:46;;;;;;;2.65;1.60;;;;;;;;;;5027025;28;20400;-56
2022/03/07 01:23:12;;;;;;;2.38;1.60;;;;;;;;;;5025021;28;20025;-57
2022/03/07 01:25:37;;;;;;;4.53;1.83;;;;;;;;;;5027764;28;20029;-58
2022/03/07 01:28:03;;;;;;;2.53;2.00;;;;;;;;;;5026630;28;20052;-55
2022/03/07 01:30:28;;;;;;;3.10;1.73;;;;;;;;;;5027479;28;20030;-56
2022/03/07 01:32:55;;;;;;;4.72;1.80;;;;;;;;;;5025033;28;21086;-57
2022/03/07 01:35:20;;;;;;;4.97;1.80;;;;;;;;;;5026682;28;20036;-60
2022/03/07 01:37:47;;;;;;;4.47;1.70;;;;;;;;;;5025899;28;20049;-59
2022/03/07 01:40:12;;;;;;;3.20;2.20;;;;;;;;;;5027419;28;20036;-60
2022/03/07 01:42:38;;;;;;;2.47;2.08;;;;;;;;;;5025222;28;20514;-57
2022/03/07 01:45:30;;;;;;;2.13;1.75;;;;;;;;;;5027141;28;20474;-54
2022/03/07 01:47:55;;;;;;;2.10;1.88;;;;;;;;;;5025689;28;20048;-55
2022/03/07 01:50:21;;;;;;;5.18;2.30;;;;;;;;;;5024871;28;20025;-58
2022/03/07 01:52:50;;;;;;;3.35;2.35;;;;;;;;;;5025334;28;20033;-52
2022/03/07 01:55:16;;;;;;;2.53;1.80;;;;;;;;;;5022633;28;20087;-55
2022/03/07 01:57:44;;;;;;;3.05;2.10;;;;;;;;;;5023433;28;20025;-56
2022/03/07 02:00:19;;;;;;;3.15;2.28;;;;;;;;;;5023561;28;20033;-60
2022/03/07 02:02:45;;;;;;;3.20;2.20;;;;;;;;;;5023483;28;20528;-56
2022/03/07 02:05:12;;;;;;;4.45;2.50;;;;;;;;;;5025177;28;20040;-57
2022/03/07 02:07:38;;;;;;;2.88;2.30;;;;;;;;;;5024902;28;20037;-56
2022/03/07 02:10:05;;;;;;;4.60;2.80;;;;;;;;;;5027011;28;20095;-56
2022/03/07 02:12:30;;;;;;;5.60;3.08;;;;;;;;;;5025790;28;20052;-61
2022/03/07 02:14:56;;;;;;;4.38;2.72;;;;;;;;;;5023645;28;20025;-57
2022/03/07 02:17:21;;;;;;;4.30;2.95;;;;;;;;;;5024230;28;20099;-56
2022/03/07 02:19:47;;;;;;;5.97;2.88;;;;;;;;;;5022425;28;20124;-57
2022/03/07 02:22:15;;;;;;;6.22;3.35;;;;;;;;;;5024600;28;20037;-58
2022/03/07 02:24:41;;;;;;;6.40;3.33;;;;;;;;;;5024204;28;20029;-56
2022/03/07 02:27:09;;;;;;;5.63;3.65;;;;;;;;;;5025138;28;20040;-57
2022/03/07 02:29:35;;;;;;;6.90;3.22;;;;;;;;;;5023696;28;20555;-56
2022/03/07 02:32:01;;;;;;;6.03;3.75;;;;;;;;;;5024614;28;20385;-58
2022/03/07 02:34:27;;;;;;;4.90;3.40;;;;;;;;;;5024152;28;20913;-56
2022/03/07 02:36:53;;;;;;;5.38;3.38;;;;;;;;;;5026402;28;20052;-58
2022/03/07 02:39:19;;;;;;;6.07;3.40;;;;;;;;;;5023096;28;20037;-55
2022/03/07 02:41:45;;;;;;;6.00;4.05;;;;;;;;;;5025773;28;20041;-57
2022/03/07 02:44:10;;;;;;;8.05;4.38;;;;;;;;;;5023554;28;20028;-57
2022/03/07 02:46:36;;;;;;;6.70;4.32;;;;;;;;;;5025904;28;20029;-58
2022/03/07 02:49:03;;;;;;;9.30;4.70;;;;;;;;;;5022646;28;20037;-58
2022/03/07 02:51:29;;;;;;;7.43;4.47;;;;;;;;;;5025741;28;20048;-54
2022/03/07 02:53:54;;;;;;;5.72;4.22;;;;;;;;;;5023537;28;20033;-55
2022/03/07 02:56:19;;;;;;;9.88;5.10;;;;;;;;;;5020948;28;20083;-56
2022/03/07 02:58:45;;;;;;;8.02;4.90;;;;;;;;;;5025212;28;20029;-55
2022/03/07 03:01:11;;;;;;;8.45;4.55;;;;;;;;;;5025700;28;20029;-57
2022/03/07 03:03:36;;;;;;;10.63;4.90;;;;;;;;;;5022964;28;20296;-57
2022/03/07 03:06:02;;;;;;;9.02;5.10;;;;;;;;;;5025470;28;20033;-57
2022/03/07 03:08:28;;;;;;;6.68;5.10;;;;;;;;;;5024778;28;20616;-57
2022/03/07 03:10:57;;;;;;;8.18;4.80;;;;;;;;;;5026520;28;20381;-55
2022/03/07 03:13:23;;;;;;;9.75;5.75;;;;;;;;;;5054955;28;20033;-52
2022/03/07 03:15:50;;;;;;;7.80;5.18;;;;;;;;;;5025848;28;20041;-56
2022/03/07 03:18:17;;;;;;;8.18;5.32;;;;;;;;;;5027495;28;20029;-57
2022/03/07 03:20:44;;;;;;;10.70;5.68;;;;;;;;;;5029123;28;20033;-58
2022/03/07 03:23:10;;;;;;;9.55;5.63;;;;;;;;;;5061080;28;20026;-58
2022/03/07 03:25:35;;;;;;;9.50;5.57;;;;;;;;;;5028479;28;20512;-58
2022/03/07 03:28:01;;;;;;;11.82;5.82;;;;;;;;;;5029536;28;20481;-53
2022/03/07 03:30:27;;;;;;;8.75;5.85;;;;;;;;;;5029270;28;20025;-56
2022/03/07 03:32:53;;;;;;;10.93;6.57;;;;;;;;;;5028640;28;20034;-55
2022/03/07 03:35:19;;;;;;;8.85;5.90;;;;;;;;;;5027795;28;20075;-54
2022/03/07 03:37:44;;;;;;;10.55;6.03;;;;;;;;;;5029233;28;20032;-52
2022/03/07 03:40:11;;;;;;;11.73;6.22;;;;;;;;;;5028387;28;20428;-56
2022/03/07 03:42:37;;;;;;;9.43;6.10;;;;;;;;;;5028761;28;20065;-58
2022/03/07 03:45:05;;;;;;;12.20;6.13;;;;;;;;;;5028179;28;20057;-57
2022/03/07 03:47:32;;;;;;;13.15;6.43;;;;;;;;;;5029942;28;20056;-58
2022/03/07 03:49:57;;;;;;;10.40;6.25;;;;;;;;;;5026499;28;20097;-60
2022/03/07 03:52:23;;;;;;;10.40;6.00;;;;;;;;;;5028673;28;20389;-59
2022/03/07 03:54:49;;;;;;;9.23;6.00;;;;;;;;;;5027418;28;20325;-58
2022/03/07 03:57:15;;;;;;;11.68;6.60;;;;;;;;;;5029655;28;20017;-61
2022/03/07 03:59:40;;;;;;;13.35;6.70;;;;;;;;;;5027936;28;20028;-58
2022/03/07 04:02:06;;;;;;;9.73;6.65;;;;;;;;;;5025999;28;20056;-55
2022/03/07 04:04:31;;;;;;;11.65;6.68;;;;;;;;;;5026820;28;20048;-51
2022/03/07 04:06:57;;;;;;;13.18;7.18;;;;;;;;;;5028819;28;20100;-59
2022/03/07 04:09:22;;;;;;;9.73;6.63;;;;;;;;;;5027599;28;20029;-59
2022/03/07 04:11:49;;;;;;;9.30;6.50;;;;;;;;;;5028481;28;20030;-60
2022/03/07 04:14:15;;;;;;;10.85;6.53;;;;;;;;;;5027162;28;20029;-59
2022/03/07 04:16:41;;;;;;;11.57;6.70;;;;;;;;;;5028984;28;20040;-59
2022/03/07 04:19:09;;;;;;;11.52;7.07;;;;;;;;;;5026351;28;20021;-58
2022/03/07 04:21:35;;;;;;;9.43;6.75;;;;;;;;;;5027813;28;20024;-58
2022/03/07 04:24:01;;;;;;;10.35;6.32;;;;;;;;;;5028197;28;20060;-59
2022/03/07 04:26:27;;;;;;;12.77;6.85;;;;;;;;;;5027170;28;20034;-58
2022/03/07 04:28:53;;;;;;;10.30;6.70;;;;;;;;;;5027833;28;20041;-57
2022/03/07 04:31:18;;;;;;;10.48;6.93;;;;;;;;;;5027616;28;20032;-60
2022/03/07 04:33:44;;;;;;;10.05;6.65;;;;;;;;;;5026914;28;20080;-60
2022/03/07 04:36:10;;;;;;;11.80;7.05;;;;;;;;;;5026205;28;20041;-58
2022/03/07 04:38:35;;;;;;;12.00;7.55;;;;;;;;;;5028838;28;20030;-59
2022/03/07 04:41:02;;;;;;;11.43;7.25;;;;;;;;;;5026508;28;20467;-60
2022/03/07 04:43:27;;;;;;;10.32;6.35;;;;;;;;;;5029374;28;20036;-57
2022/03/07 04:45:52;;;;;;;12.25;6.68;;;;;;;;;;5026002;28;20389;-57
2022/03/07 04:48:19;;;;;;;11.77;6.25;;;;;;;;;;5027374;28;20124;-60
2022/03/07 04:50:45;;;;;;;9.48;6.40;;;;;;;;;;5027027;28;20068;-57
2022/03/07 04:53:11;;;;;;;11.63;6.47;;;;;;;;;;5028375;28;20021;-58
2022/03/07 04:55:37;;;;;;;10.45;6.60;;;;;;;;;;5025236;28;20037;-58
2022/03/07 04:58:03;;;;;;;10.98;6.65;;;;;;;;;;5028657;28;20041;-55
2022/03/07 05:00:30;;;;;;;12.57;7.03;;;;;;;;;;5025779;28;20037;-57
2022/03/07 05:02:56;;;;;;;11.45;6.68;;;;;;;;;;5026047;28;20075;-58
2022/03/07 05:05:21;;;;;;;13.73;7.43;;;;;;;;;;5027841;28;20484;-58
2022/03/07 05:07:49;;;;;;;10.80;6.97;;;;;;;;;;5026359;28;20493;-57
2022/03/07 05:10:16;;;;;;;10.75;6.93;;;;;;;;;;5026129;28;20542;-59
2022/03/07 05:12:42;;;;;;;15.80;6.53;;;;;;;;;;5024232;28;20072;-58
2022/03/07 05:15:08;;;;;;;11.85;6.85;;;;;;;;;;5025795;28;20041;-52
2022/03/07 05:17:41;;;;;;;12.98;6.93;;;;;;;;;;5026908;28;20029;-53
2022/03/07 05:20:07;;;;;;;11.20;6.10;;;;;;;;;;5025099;28;20025;-51
2022/03/07 05:22:32;;;;;;;12.13;6.78;;;;;;;;;;5027506;28;20489;-52
2022/03/07 05:24:58;;;;;;;10.88;7.28;;;;;;;;;;5027014;28;20083;-52
2022/03/07 05:27:23;;;;;;;9.80;6.53;;;;;;;;;;5026240;28;20078;-52
2022/03/07 05:29:48;;;;;;;10.63;6.63;;;;;;;;;;5026659;28;20497;-56
2022/03/07 05:32:14;;;;;;;10.15;6.82;;;;;;;;;;5024151;28;20435;-50
2022/03/07 05:34:39;;;;;;;11.23;7.28;;;;;;;;;;5025185;28;20426;-54
2022/03/07 05:37:04;;;;;;;10.50;6.13;;;;;;;;;;5024000;28;20033;-54
2022/03/07 05:39:30;;;;;;;12.50;6.72;;;;;;;;;;5026038;28;20034;-59
2022/03/07 05:41:55;;;;;;;10.98;6.68;;;;;;;;;;5024445;28;20064;-53
2022/03/07 05:44:21;;;;;;;12.52;6.57;;;;;;;;;;5027067;28;20359;-54
2022/03/07 05:46:46;;;;;;;12.50;7.00;;;;;;;;;;5026068;28;20041;-54
2022/03/07 05:49:11;;;;;;;10.88;6.40;;;;;;;;;;5026980;28;20045;-52
2022/03/07 05:51:37;;;;;;;9.63;6.60;;;;;;;;;;5025970;28;20032;-54
2022/03/07 05:54:02;;;;;;;10.75;6.88;;;;;;;;;;5027186;28;20496;-53
2022/03/07 05:56:28;;;;;;;10.40;6.65;;;;;;;;;;5024800;28;20057;-50
2022/03/07 05:58:54;;;;;;;10.18;6.30;;;;;;;;;;5027783;28;20021;-54
2022/03/07 06:01:19;;;;;;;10.45;7.00;;;;;;;;;;5023064;28;20178;-48
2022/03/07 06:03:44;;;;;;;10.70;6.72;;;;;;;;;;5024392;28;20058;-53
2022/03/07 06:06:10;;;;;;;11.23;6.85;;;;;;;;;;5025294;28;20503;-54
2022/03/07 06:08:36;;;;;;;10.70;6.97;;;;;;;;;;5023146;28;20025;-54
2022/03/07 06:11:01;;;;;;;12.00;6.53;;;;;;;;;;5024657;28;20025;-52
2022/03/07 06:13:27;;;;;;;10.60;6.60;;;;;;;;;;5023276;28;20029;-50
2022/03/07 06:15:52;;;;;;;10.18;6.80;;;;;;;;;;5024276;28;20032;-48
2022/03/07 06:18:18;;;;;;;8.85;6.38;;;;;;;;;;5025222;28;20155;-54
2022/03/07 06:20:43;;;;;;;11.00;7.03;;;;;;;;;;5026035;28;20029;-50
2022/03/07 06:23:08;;;;;;;10.45;6.63;;;;;;;;;;5024684;28;20075;-48
2022/03/07 06:25:34;;;;;;;9.13;6.03;;;;;;;;;;5024738;28;20025;-49
2022/03/07 06:28:01;;;;;;;9.07;6.35;;;;;;;;;;5024717;28;20338;-45
2022/03/07 06:30:26;;;;;;;9.43;6.57;;;;;;;;;;5024586;28;20039;-51
2022/03/07 06:32:52;;;;;;;11.13;6.45;;;;;;;;;;5024407;28;20037;-51
2022/03/07 06:35:17;;;;;;;9.73;6.05;;;;;;;;;;5023820;28;20037;-50
2022/03/07 06:37:50;;;;;;;7.38;5.18;;;;;;;;;;5024337;28;20056;-44
2022/03/07 06:40:17;;;;;;;7.60;5.18;;;;;;;;;;5023273;28;20068;-46
2022/03/07 06:42:43;;;;;;;6.68;4.97;;;;;;;;;;5024288;28;20389;-50
2022/03/07 06:45:12;;;;;;;7.13;4.97;;;;;;;;;;5026924;28;20168;-49
2022/03/07 06:47:37;;;;;;;6.32;4.43;;;;;;;;;;5024757;28;20078;-48
2022/03/07 06:50:03;;;;;;;7.32;4.80;;;;;;;;;;5024505;28;20025;-57
2022/03/07 06:52:28;;;;;;;5.38;4.20;;;;;;;;;;5024186;28;20519;-59
2022/03/07 06:54:54;;;;;;;7.03;4.25;;;;;;;;;;5026264;28;20037;-56
2022/03/07 06:57:20;;;;;;;12.10;4.38;;;;;;;;;;5024025;28;20025;-50
2022/03/07 06:59:45;;;;;;;11.65;4.50;;;;;;;;;;5026615;28;20393;-54
2022/03/07 07:02:11;;;;;;;4.68;4.03;;;;;;;;;;5021085;28;20041;-50
2022/03/07 07:04:37;;;;;;;6.85;4.13;;;;;;;;;;5026187;28;20025;-54
2022/03/07 07:07:03;;;;;;;5.35;4.40;;;;;;;;;;5022053;28;20038;-57
2022/03/07 07:09:28;;;;;;;8.50;3.95;;;;;;;;;;5025102;28;20079;-56
2022/03/07 07:11:53;;;;;;;7.05;4.55;;;;;;;;;;5024642;28;20119;-58
2022/03/07 07:14:19;;;;;;;9.13;4.55;;;;;;;;;;5024219;28;20027;-58
2022/03/07 07:16:44;;;;;;;5.82;4.25;;;;;;;;;;5024418;28;20034;-57
2022/03/07 07:19:10;;;;;;;9.60;4.47;;;;;;;;;;5024808;28;20037;-56
2022/03/07 07:21:35;;;;;;;6.97;4.10;;;;;;;;;;5022047;28;20029;-52
2022/03/07 07:24:00;;;;;;;8.10;4.32;;;;;;;;;;5025555;28;20493;-54
2022/03/07 07:26:26;;;;;;;6.38;4.45;;;;;;;;;;5024668;28;20112;-57
2022/03/07 07:28:52;;;;;;;6.47;3.92;;;;;;;;;;5026161;28;20033;-56
2022/03/07 07:31:18;;;;;;;12.40;4.40;;;;;;;;;;5024061;28;20037;-58
2022/03/07 07:33:44;;;;;;;6.78;4.05;;;;;;;;;;5024396;28;20091;-52
2022/03/07 07:36:09;;;;;;;6.57;3.65;;;;;;;;;;5024096;28;20068;-55
2022/03/07 07:38:35;;;;;;;11.20;4.18;;;;;;;;;;5026210;28;20034;-55
2022/03/07 07:41:01;;;;;;;10.50;4.07;;;;;;;;;;5023708;28;20034;-52
2022/03/07 07:43:27;;;;;;;5.18;4.25;;;;;;;;;;5024685;28;20030;-59
2022/03/07 07:45:52;;;;;;;6.15;3.83;;;;;;;;;;5023130;28;20087;-56
2022/03/07 07:48:18;;;;;;;11.10;3.97;;;;;;;;;;5025214;28;20958;-53
2022/03/07 07:50:43;;;;;;;8.60;4.00;;;;;;;;;;5024835;28;20052;-54
2022/03/07 07:53:08;;;;;;;7.53;4.18;;;;;;;;;;5025328;28;20056;-54
2022/03/07 07:55:34;;;;;;;6.25;3.80;;;;;;;;;;5025674;28;20033;-57
2022/03/07 07:57:59;;;;;;;7.05;3.70;;;;;;;;;;5024780;28;20433;-55
2022/03/07 08:00:25;;;;;;;10.45;4.18;;;;;;;;;;5025233;28;20041;-58
2022/03/07 08:02:50;;;;;;;7.13;3.70;;;;;;;;;;5025839;28;20027;-52
2022/03/07 08:05:17;;;;;;;8.55;3.67;;;;;;;;;;5027482;28;20065;-57
2022/03/07 08:07:44;;;;;;;7.53;3.80;;;;;;;;;;5027549;28;20087;-60
2022/03/07 08:10:15;;;;;;;5.10;3.92;;;;;;;;;;5026438;28;20528;-53
2022/03/07 08:12:41;;;;;;;8.38;3.70;;;;;;;;;;5028687;28;20388;-57
2022/03/07 08:15:11;;;;;;;5.95;3.90;;;;;;;;;;5028913;28;20124;-65
2022/03/07 08:17:46;;;;;;;8.07;3.83;;;;;;;;;;5026517;28;20076;-53
2022/03/07 08:20:15;;;;;;;3.90;3.33;;;;;;;;;;5027914;28;20397;-57
2022/03/07 08:22:41;;;;;;;5.90;3.85;;;;;;;;;;5028147;28;20018;-58
2022/03/07 08:25:06;;;;;;;4.93;3.55;;;;;;;;;;5029365;28;20025;-57
2022/03/07 08:27:38;;;;;;;6.13;3.53;;;;;;;;;;5026906;28;20369;-57
2022/03/07 08:30:09;;;;;;;7.40;3.58;;;;;;;;;;5029059;28;20476;-51
2022/03/07 08:32:35;;;;;;;5.80;3.88;;;;;;;;;;5025985;28;20053;-53
2022/03/07 08:35:02;;;;;;;4.80;3.72;;;;;;;;;;5029070;28;20021;-57
2022/03/07 08:37:27;;;;;;;4.90;3.72;;;;;;;;;;5027594;28;20044;-58
2022/03/07 08:39:52;;;;;;;9.00;3.75;;;;;;;;;;5028837;28;20038;-50
2022/03/07 08:42:19;;;;;;;6.82;4.00;;;;;;;;;;5027229;28;20048;-55
2022/03/07 08:44:44;;;;;;;6.68;3.40;;;;;;;;;;5027389;28;20033;-59
2022/03/07 08:47:10;;;;;;;7.80;3.70;;;;;;;;;;5027211;28;20493;-57
2022/03/07 08:49:35;;;;;;;5.38;3.47;;;;;;;;;;5027322;28;20044;-59
2022/03/07 08:52:01;;;;;;;10.57;4.13;;;;;;;;;;5027893;28;20021;-57
2022/03/07 08:54:26;;;;;;;8.75;3.70;;;;;;;;;;5027747;28;20017;-52
2022/03/07 08:56:52;;;;;;;11.52;3.55;;;;;;;;;;5026656;28;20037;-57
2022/03/07 08:59:17;;;;;;;8.10;3.75;;;;;;;;;;5027783;28;20098;-57
2022/03/07 09:01:43;;;;;;;9.65;3.53;;;;;;;;;;5026504;28;20091;-57
2022/03/07 09:04:08;;;;;;;4.75;3.35;;;;;;;;;;5027436;28;20618;-56
2022/03/07 09:06:33;;;;;;;6.80;3.65;;;;;;;;;;5026259;28;20071;-56
2022/03/07 09:08:59;;;;;;;10.00;3.72;;;;;;;;;;5026419;28;20558;-58
2022/03/07 09:11:24;;;;;;;8.27;4.30;;;;;;;;;;5027901;28;20733;-56
2022/03/07 09:13:49;;;;;;;13.00;4.03;;;;;;;;;;5026436;28;20037;-53
2022/03/07 09:16:15;;;;;;;7.40;3.80;;;;;;;;;;5027372;28;20025;-58
2022/03/07 09:18:41;;;;;;;8.27;4.00;;;;;;;;;;5026198;28;20381;-52
2022/03/07 09:21:07;;;;;;;8.73;4.25;;;;;;;;;;5025987;28;20025;-49
2022/03/07 09:23:37;;;;;;;9.63;4.10;;;;;;;;;;5027216;28;20377;-56
2022/03/07 09:26:06;;;;;;;6.75;3.60;;;;;;;;;;5025832;28;20033;-55
2022/03/07 09:28:33;;;;;;;8.25;3.50;;;;;;;;;;5025533;28;20033;-51
2022/03/07 09:30:59;;;;;;;7.20;4.15;;;;;;;;;;5027850;28;20091;-50
2022/03/07 09:33:25;;;;;;;5.65;3.45;;;;;;;;;;5025017;28;20029;-52
2022/03/07 09:35:51;;;;;;;7.57;3.67;;;;;;;;;;5028282;28;20036;-57
2022/03/07 09:38:16;;;;;;;6.97;3.72;;;;;;;;;;5024847;28;20041;-54
2022/03/07 09:40:42;;;;;;;6.38;3.63;;;;;;;;;;5027203;28;20093;-58
2022/03/07 09:43:08;;;;;;;6.18;3.42;;;;;;;;;;5025292;28;20045;-57
2022/03/07 09:45:34;;;;;;;5.00;3.83;;;;;;;;;;5027676;28;20438;-58
2022/03/07 09:47:59;;;;;;;8.35;3.97;;;;;;;;;;5024848;28;20053;-56
2022/03/07 09:50:31;;;;;;;5.90;4.13;;;;;;;;;;5026449;28;20017;-56
2022/03/07 09:52:57;;;;;;;4.70;3.80;;;;;;;;;;5026147;28;20178;-53
2022/03/07 09:55:24;;;;;;;26.48;5.13;;;;;;;;;;5026838;28;20021;-59
2022/03/07 09:57:51;;;;;;;12.68;4.30;;;;;;;;;;5026845;28;20627;-55
2022/03/07 10:00:17;;;;;;;5.70;3.42;;;;;;;;;;5026833;28;20116;-58
2022/03/07 10:03:02;;;;;;;6.97;4.07;;;;;;;;;;5026072;28;20055;-58
2022/03/07 10:05:31;;;;;;;5.85;4.10;;;;;;;;;;5027644;28;20032;-54
2022/03/07 10:07:57;;;;;;;5.10;3.53;;;;;;;;;;5027060;28;20037;-54
2022/03/07 10:10:31;;;;;;;10.50;4.05;;;;;;;;;;5026963;28;20480;-56
2022/03/07 10:12:56;;;;;;;6.10;3.67;;;;;;;;;;5025295;28;20412;-58
2022/03/07 10:15:22;;;;;;;11.63;3.60;;;;;;;;;;5025926;28;20041;-54
2022/03/07 10:17:54;;;;;;;4.18;3.42;;;;;;;;;;5025604;28;20084;-59
2022/03/07 10:20:21;;;;;;;6.60;3.90;;;;;;;;;;5024455;28;20497;-58
2022/03/07 10:22:50;;;;;;;6.53;4.00;;;;;;;;;;5025364;28;20038;-55
2022/03/07 10:25:21;;;;;;;5.38;3.55;;;;;;;;;;5026365;28;20048;-52
2022/03/07 10:27:49;;;;;;;16.13;3.88;;;;;;;;;;5025423;28;20040;-58
2022/03/07 10:30:23;;;;;;;10.35;3.85;;;;;;;;;;5024709;28;20038;-55
2022/03/07 10:33:13;;;;;;;9.85;3.63;;;;;;;;;;5026232;28;20036;-55
2022/03/07 10:35:42;;;;;;;6.72;3.90;;;;;;;;;;5020564;28;20041;-57
2022/03/07 10:38:17;;;;;;;7.68;3.88;;;;;;;;;;5024753;28;20116;-53
2022/03/07 10:40:47;;;;;;;12.90;4.45;;;;;;;;;;5025764;28;20033;-57
2022/03/07 10:43:14;;;;;;;5.57;4.13;;;;;;;;;;5024504;28;20021;-55
2022/03/07 10:45:49;;;;;;;5.80;4.00;;;;;;;;;;5025109;28;20325;-60
2022/03/07 10:48:15;;;;;;;8.85;3.25;;;;;;;;;;5022268;28;20575;-64
2022/03/07 10:50:47;;;;;;;6.38;3.45;;;;;;;;;;5024889;28;20029;-56
2022/03/07 10:53:12;;;;;;;8.30;3.95;;;;;;;;;;5021894;28;20033;-58
2022/03/07 10:55:38;;;;;;;6.18;3.80;;;;;;;;;;5024872;28;20036;-54
2022/03/07 10:58:07;;;;;;;4.53;3.65;;;;;;;;;;5025062;28;20037;-57
2022/03/07 11:00:32;;;;;;;7.55;3.63;;;;;;;;;;5023286;28;20034;-55
2022/03/07 11:02:58;;;;;;;5.18;3.92;;;;;;;;;;5025397;28;20021;-49
2022/03/07 11:05:23;;;;;;;3.95;3.33;;;;;;;;;;5023239;28;20067;-55
2022/03/07 11:07:51;;;;;;;5.88;3.90;;;;;;;;;;5026859;28;20048;-49
2022/03/07 11:10:18;;;;;;;6.35;3.33;;;;;;;;;;5023882;28;20651;-56
2022/03/07 11:12:44;;;;;;;6.22;3.45;;;;;;;;;;5026852;28;20029;-56
2022/03/07 11:15:14;;;;;;;7.63;3.45;;;;;;;;;;5022637;28;20386;-57
2022/03/07 11:17:46;;;;;;;5.35;3.55;;;;;;;;;;5025406;28;20033;-58
2022/03/07 11:20:14;;;;;;;4.15;3.40;;;;;;;;;;5023160;28;20037;-59
2022/03/07 11:22:40;;;;;;;6.13;3.47;;;;;;;;;;5023389;28;20025;-58
2022/03/07 11:25:07;;;;;;;6.60;3.35;;;;;;;;;;5023200;28;20036;-58
2022/03/07 11:27:35;;;;;;;10.13;2.97;;;;;;;;;;5025873;28;20044;-55
2022/03/07 11:30:11;;;;;;;7.13;3.72;;;;;;;;;;5022272;28;20091;-57
2022/03/07 11:32:38;;;;;;;5.45;3.38;;;;;;;;;;5026013;28;20029;-57
2022/03/07 11:35:04;;;;;;;3.92;3.10;;;;;;;;;;5024712;28;20026;-55
2022/03/07 11:37:31;;;;;;;6.93;3.22;;;;;;;;;;5026681;28;20040;-55
2022/03/07 11:39:58;;;;;;;5.07;3.15;;;;;;;;;;5028709;28;20040;-52
2022/03/07 11:42:33;;;;;;;4.03;3.03;;;;;;;;;;5029431;28;20033;-53
2022/03/07 11:45:08;;;;;;;9.85;3.15;;;;;;;;;;5029207;28;20131;-53
2022/03/07 11:47:38;;;;;;;4.60;3.15;;;;;;;;;;5029484;28;20076;-59
2022/03/07 11:50:06;;;;;;;3.40;3.08;;;;;;;;;;5027381;28;20060;-56
2022/03/07 11:52:32;;;;;;;9.10;3.78;;;;;;;;;;5026955;28;20040;-59
2022/03/07 11:55:06;;;;;;;4.85;3.50;;;;;;;;;;5025201;28;20136;-58
2022/03/07 11:57:43;;;;;;;4.60;3.50;;;;;;;;;;5027730;28;20029;-58
2022/03/07 12:00:26;;;;;;;6.95;3.95;;;;;;;;;;5025915;28;20036;-57
2022/03/07 12:02:58;;;;;;;9.07;3.45;;;;;;;;;;5027703;28;20560;-53
2022/03/07 12:05:25;;;;;;;5.05;3.60;;;;;;;;;;5027969;28;20041;-55
2022/03/07 12:07:51;;;;;;;4.80;3.20;;;;;;;;;;5029826;28;20103;-57
2022/03/07 12:10:16;;;;;;;5.25;3.58;;;;;;;;;;5027908;28;20057;-57
2022/03/07 12:12:42;;;;;;;4.55;3.08;;;;;;;;;;5027644;28;20061;-55
2022/03/07 12:15:10;;;;;;;5.80;3.25;;;;;;;;;;5027750;28;20071;-55
2022/03/07 12:17:35;;;;;;;7.28;3.70;;;;;;;;;;5026917;28;20060;-57
2022/03/07 12:20:00;;;;;;;5.38;3.70;;;;;;;;;;5028208;28;20064;-57
2022/03/07 12:22:31;;;;;;;6.57;3.85;;;;;;;;;;5025365;28;20112;-57
2022/03/07 12:24:57;;;;;;;4.85;3.20;;;;;;;;;;5026223;28;20035;-59
2022/03/07 12:27:23;;;;;;;7.45;3.45;;;;;;;;;;5027844;28;20037;-58
2022/03/07 12:29:51;;;;;;;5.15;3.63;;;;;;;;;;5027900;28;20143;-58
2022/03/07 12:32:17;;;;;;;5.88;3.55;;;;;;;;;;5026940;28;20039;-59
2022/03/07 12:34:43;;;;;;;5.13;3.63;;;;;;;;;;5029081;28;20041;-55
2022/03/07 12:37:17;;;;;;;5.38;2.97;;;;;;;;;;5026563;28;20025;-56
2022/03/07 12:39:45;;;;;;;4.78;3.75;;;;;;;;;;5026312;28;20028;-55
2022/03/07 12:42:11;;;;;;;5.55;3.63;;;;;;;;;;5026751;28;20489;-57
2022/03/07 12:44:38;;;;;;;7.72;4.30;;;;;;;;;;5029383;28;20025;-57
2022/03/07 12:47:04;;;;;;;7.13;3.70;;;;;;;;;;5025984;28;20482;-55
2022/03/07 12:49:29;;;;;;;8.55;3.38;;;;;;;;;;5027686;28;20025;-55
2022/03/07 12:51:55;;;;;;;5.75;3.80;;;;;;;;;;5025972;28;20043;-54
2022/03/07 12:54:33;;;;;;;7.47;3.80;;;;;;;;;;5028524;28;20038;-51
2022/03/07 12:56:59;;;;;;;5.40;3.72;;;;;;;;;;5026254;28;20509;-53
2022/03/07 12:59:27;;;;;;;10.52;3.90;;;;;;;;;;5025464;28;20108;-58
2022/03/07 13:01:53;;;;;;;5.72;4.00;;;;;;;;;;5025625;28;20033;-57
2022/03/07 13:04:25;;;;;;;5.05;3.47;;;;;;;;;;5026901;28;20091;-57
2022/03/07 13:06:52;;;;;;;6.95;4.10;;;;;;;;;;5026818;28;20037;-54
2022/03/07 13:09:28;;;;;;;10.45;4.43;;;;;;;;;;5027451;28;20033;-56
2022/03/07 13:11:54;;;;;;;8.75;4.00;;;;;;;;;;5026561;28;20720;-58
2022/03/07 13:14:23;;;;;;;7.60;4.20;;;;;;;;;;5025855;28;20277;-55
2022/03/07 13:16:49;;;;;;;7.85;4.05;;;;;;;;;;5025890;28;20026;-57
2022/03/07 13:19:15;;;;;;;4.65;4.03;;;;;;;;;;5026046;28;20037;-58
2022/03/07 13:21:44;;;;;;;6.07;4.13;;;;;;;;;;5025483;28;20037;-59
2022/03/07 13:24:23;;;;;;;5.35;3.83;;;;;;;;;;5026912;28;20025;-57
2022/03/07 13:27:25;;;;;;;5.03;3.72;;;;;;;;;;5025040;28;20033;-60
2022/03/07 13:30:11;;;;;;;5.35;4.20;;;;;;;;;;4984998;28;20028;-59
2022/03/07 13:32:40;;;;;;;11.02;4.63;;;;;;;;;;5022231;28;20075;-58
2022/03/07 13:35:07;;;;;;;11.82;3.92;;;;;;;;;;5028254;28;20029;-58
2022/03/07 13:37:45;;;;;;;6.47;4.07;;;;;;;;;;5025863;28;20044;-60
2022/03/07 13:40:14;;;;;;;8.80;4.20;;;;;;;;;;5026970;28;20040;-56
2022/03/07 13:42:41;;;;;;;7.65;3.70;;;;;;;;;;5025479;28;20519;-58
2022/03/07 13:45:29;;;;;;;6.78;4.03;;;;;;;;;;5025169;28;20025;-58
2022/03/07 13:47:59;;;;;;;6.05;3.85;;;;;;;;;;5024936;28;20037;-55
2022/03/07 13:50:26;;;;;;;8.55;4.20;;;;;;;;;;5027908;28;20052;-57
2022/03/07 13:53:14;;;;;;;5.88;4.00;;;;;;;;;;5025314;28;20041;-58
2022/03/07 13:55:51;;;;;;;4.80;3.67;;;;;;;;;;5024795;28;20033;-58
2022/03/07 13:58:22;;;;;;;8.32;3.40;;;;;;;;;;5024937;28;20115;-57
2022/03/07 14:00:48;;;;;;;4.80;3.55;;;;;;;;;;5027653;28;20423;-56
2022/03/07 14:03:15;;;;;;;6.03;3.33;;;;;;;;;;5023171;28;20038;-56
2022/03/07 14:05:54;;;;;;;8.88;3.50;;;;;;;;;;5024727;28;20132;-57
2022/03/07 14:08:33;;;;;;;6.97;3.78;;;;;;;;;;5054893;28;20357;-58
2022/03/07 14:11:01;;;;;;;10.80;3.60;;;;;;;;;;5027004;28;20087;-58
2022/03/07 14:13:41;;;;;;;8.50;3.53;;;;;;;;;;5025340;28;20033;-51
2022/03/07 14:16:07;;;;;;;13.50;3.60;;;;;;;;;;5026084;28;20171;-58
2022/03/07 14:18:33;;;;;;;9.10;3.53;;;;;;;;;;5025190;28;20040;-55
2022/03/07 14:20:58;;;;;;;8.88;3.67;;;;;;;;;;5025416;28;20029;-51
2022/03/07 14:23:24;;;;;;;4.93;3.10;;;;;;;;;;5025053;28;20084;-58
2022/03/07 14:25:49;;;;;;;10.15;3.50;;;;;;;;;;5025411;28;20079;-56
2022/03/07 14:28:14;;;;;;;3.92;3.50;;;;;;;;;;5025169;28;20111;-57
2022/03/07 14:30:40;;;;;;;7.85;3.50;;;;;;;;;;5025202;28;20025;-56
2022/03/07 14:33:06;;;;;;;8.48;3.13;;;;;;;;;;5023603;28;20038;-58
2022/03/07 14:35:32;;;;;;;5.45;3.67;;;;;;;;;;5025885;28;20043;-49
2022/03/07 14:37:57;;;;;;;6.30;3.38;;;;;;;;;;5025015;28;20112;-49
2022/03/07 14:40:24;;;;;;;5.10;3.20;;;;;;;;;;5026969;28;20135;-58